Time;durP1;ratioP1;P1;durP2;ratioP2;P2;SDS_P1;SDS_P2;PMS_P1;PMS_P2;Temp;Humidity;BMP_temperature;BMP_pressure;BME280_temperature;BME280_humidity;BME280_pressure;Samples;Min_cycle;Max_cycle;Signal;HPM_P1;HPM_P2
2022/01/05 00:00:01;;;;;;;20.02;9.03;;;;;;;4.09;80.47;101199.33;1810650;79;21177;-59
2022/01/05 00:02:29;;;;;;;20.17;9.10;;;;;;;4.06;80.48;101199.36;1802264;79;21085;-57
2022/01/05 00:04:58;;;;;;;17.27;7.22;;;;;;;4.01;80.53;101203.72;1794624;80;21102;-57
2022/01/05 00:07:27;;;;;;;13.28;6.75;;;;;;;4.00;80.64;101200.67;1794706;80;21081;-59
2022/01/05 00:09:56;;;;;;;16.50;7.83;;;;;;;3.96;80.79;101201.57;1794628;79;21632;-59
2022/01/05 00:12:24;;;;;;;13.35;6.58;;;;;;;3.92;80.84;101204.62;1794544;79;21122;-59
2022/01/05 00:14:53;;;;;;;12.55;6.70;;;;;;;3.88;80.80;101208.12;1794624;80;21106;-57
2022/01/05 00:17:22;;;;;;;14.73;6.90;;;;;;;3.84;80.84;101205.96;1794745;80;21070;-56
2022/01/05 00:19:51;;;;;;;10.68;5.85;;;;;;;3.82;80.82;101205.10;1794635;80;21122;-57
2022/01/05 00:22:19;;;;;;;11.65;5.00;;;;;;;3.79;80.81;101208.16;1794628;80;21070;-57
2022/01/05 00:24:48;;;;;;;14.95;7.40;;;;;;;3.78;80.75;101209.91;1794714;80;21566;-58
2022/01/05 00:27:17;;;;;;;16.97;8.98;;;;;;;3.76;80.76;101206.44;1794655;80;21106;-58
2022/01/05 00:29:47;;;;;;;19.42;11.33;;;;;;;3.77;80.82;101208.16;1794636;80;21641;-58
2022/01/05 00:32:16;;;;;;;19.80;11.97;;;;;;;3.77;80.81;101207.30;1794600;80;21775;-58
2022/01/05 00:34:44;;;;;;;22.77;12.73;;;;;;;3.77;80.81;101218.58;1794846;80;21089;-58
2022/01/05 00:37:13;;;;;;;22.62;14.23;;;;;;;3.75;80.76;101206.44;1794589;79;21168;-59
2022/01/05 00:39:42;;;;;;;17.52;12.37;;;;;;;3.74;80.79;101209.45;1794641;80;21106;-58
2022/01/05 00:42:11;;;;;;;19.00;11.50;;;;;;;3.78;80.88;101205.11;1794552;80;21610;-58
2022/01/05 00:44:40;;;;;;;22.87;12.45;;;;;;;3.77;80.90;101204.25;1794595;80;21485;-58
2022/01/05 00:47:08;;;;;;;23.98;11.03;;;;;;;3.75;80.87;101199.48;1794623;80;21062;-58
2022/01/05 00:49:37;;;;;;;12.78;7.28;;;;;;;3.72;80.89;101203.39;1794593;80;21066;-59
2022/01/05 00:52:06;;;;;;;16.45;8.55;;;;;;;3.67;81.00;101203.83;1794584;80;21152;-58
2022/01/05 00:54:35;;;;;;;21.65;12.55;;;;;;;3.68;80.94;101204.28;1794621;80;21098;-58
2022/01/05 00:57:04;;;;;;;17.92;7.83;;;;;;;3.67;80.90;101207.73;1794635;80;21100;-57
2022/01/05 00:59:33;;;;;;;17.90;8.38;;;;;;;3.58;80.89;101211.67;1794706;80;21094;-58
2022/01/05 01:02:01;;;;;;;13.62;6.53;;;;;;;3.51;80.97;101207.38;1800222;79;21078;-59
2022/01/05 01:04:30;;;;;;;12.90;6.42;;;;;;;3.45;81.09;101209.13;1810761;79;21220;-57
2022/01/05 01:06:59;;;;;;;16.57;6.15;;;;;;;3.40;81.12;101208.25;1810621;79;21644;-57
2022/01/05 01:09:28;;;;;;;13.18;6.65;;;;;;;3.37;81.13;101210.86;1810619;79;21107;-57
2022/01/05 01:11:56;;;;;;;15.05;7.75;;;;;;;3.34;81.19;101206.98;1810646;79;21640;-57
2022/01/05 01:14:25;;;;;;;15.60;7.33;;;;;;;3.31;81.29;101207.41;1810673;79;21108;-57
2022/01/05 01:16:54;;;;;;;18.23;7.80;;;;;;;3.31;81.35;101210.88;1810513;79;21152;-58
2022/01/05 01:19:23;;;;;;;17.25;7.28;;;;;;;3.28;81.24;101209.56;1810709;79;21121;-57
2022/01/05 01:21:52;;;;;;;16.77;6.90;;;;;;;3.26;81.18;101210.90;1810626;79;21124;-57
2022/01/05 01:24:20;;;;;;;12.73;6.33;;;;;;;3.23;81.19;101211.33;1810704;79;21561;-57
2022/01/05 01:26:49;;;;;;;17.87;8.28;;;;;;;3.21;81.16;101210.03;1810696;79;21120;-57
2022/01/05 01:29:18;;;;;;;16.87;9.13;;;;;;;3.16;81.17;101213.06;1810511;79;21508;-58
2022/01/05 01:31:47;;;;;;;17.67;10.78;;;;;;;3.14;81.13;101216.11;1810603;79;21136;-57
2022/01/05 01:34:17;;;;;;;25.55;14.50;;;;;;;3.14;81.03;101225.66;1810553;79;21555;-58
2022/01/05 01:36:46;;;;;;;27.52;15.48;;;;;;;3.11;80.98;101225.64;1814570;78;21504;-57
2022/01/05 01:39:14;;;;;;;12.20;7.03;;;;;;;3.08;81.00;101227.39;1822118;79;21114;-58
2022/01/05 01:41:43;;;;;;;11.90;6.83;;;;;;;3.07;80.98;101223.48;1820537;79;21022;-56
2022/01/05 01:44:12;;;;;;;12.98;6.65;;;;;;;3.02;80.99;101227.37;1815977;79;21098;-56
2022/01/05 01:46:40;;;;;;;14.05;7.03;;;;;;;2.97;81.08;101225.63;1816015;79;21544;-57
2022/01/05 01:49:09;;;;;;;12.63;6.87;;;;;;;2.92;81.15;101219.59;1815983;79;21140;-59
2022/01/05 01:51:38;;;;;;;12.23;6.42;;;;;;;2.91;81.12;101220.00;1816025;79;21094;-59
2022/01/05 01:54:08;;;;;;;14.38;6.65;;;;;;;2.89;81.07;101212.63;1815937;79;21113;-58
2022/01/05 01:56:37;;;;;;;14.38;7.03;;;;;;;2.87;81.11;101209.16;1815994;79;21182;-59
2022/01/05 01:59:08;;;;;;;14.35;6.42;;;;;;;2.86;81.13;101207.01;1815991;79;21082;-59
2022/01/05 02:01:37;;;;;;;15.60;6.05;;;;;;;2.85;81.09;101213.50;1814213;79;21171;-58
2022/01/05 02:04:05;;;;;;;11.48;6.85;;;;;;;2.79;81.10;101207.88;1805475;79;21065;-58
2022/01/05 02:06:34;;;;;;;15.05;6.20;;;;;;;2.74;81.26;101204.84;1805811;79;21033;-58
2022/01/05 02:09:05;;;;;;;10.03;5.60;;;;;;;2.73;81.29;101201.78;1805422;79;21135;-58
2022/01/05 02:11:36;;;;;;;11.73;5.25;;;;;;;2.76;81.21;101214.36;1805599;79;21065;-58
2022/01/05 02:14:05;;;;;;;10.72;5.22;;;;;;;2.76;81.21;101203.95;1805446;79;21558;-58
2022/01/05 02:16:35;;;;;;;12.28;6.05;;;;;;;2.79;81.12;101195.31;1805472;79;21065;-57
2022/01/05 02:19:04;;;;;;;14.78;5.45;;;;;;;2.78;81.16;101194.86;1805459;79;21093;-57
2022/01/05 02:21:36;;;;;;;11.38;5.62;;;;;;;2.70;81.30;101191.81;1805405;79;21127;-58
2022/01/05 02:24:07;;;;;;;12.20;6.15;;;;;;;2.67;81.47;101191.84;1805444;79;21049;-58
2022/01/05 02:26:36;;;;;;;13.28;5.95;;;;;;;2.66;81.49;101179.69;1805666;79;21508;-59
2022/01/05 02:29:06;;;;;;;11.05;6.30;;;;;;;2.66;81.51;101184.89;1805464;79;21504;-59
2022/01/05 02:31:35;;;;;;;13.22;5.60;;;;;;;2.68;81.48;101189.66;1805575;79;21026;-59
2022/01/05 02:34:05;;;;;;;11.08;4.72;;;;;;;2.70;81.47;101184.02;1805361;79;21078;-60
2022/01/05 02:36:34;;;;;;;10.68;5.37;;;;;;;2.74;81.44;101184.03;1805497;79;21495;-59
2022/01/05 02:39:03;;;;;;;11.57;5.85;;;;;;;2.78;81.38;101188.36;1770888;79;21105;-59
2022/01/05 02:41:32;;;;;;;10.98;5.97;;;;;;;2.80;81.35;101177.52;1761930;81;21577;-59
2022/01/05 02:44:00;;;;;;;10.60;4.53;;;;;;;2.80;81.39;101178.82;1762020;81;21131;-60
2022/01/05 02:46:29;;;;;;;13.25;5.67;;;;;;;2.78;81.38;101173.61;1761817;81;21116;-60
2022/01/05 02:48:58;;;;;;;10.58;5.03;;;;;;;2.82;81.37;101187.48;1762012;81;21112;-59
2022/01/05 02:51:28;;;;;;;12.78;5.15;;;;;;;2.82;81.35;101187.08;1761907;80;21629;-60
2022/01/05 02:53:56;;;;;;;10.32;4.75;;;;;;;2.83;81.30;101190.53;1761873;81;21065;-60
2022/01/05 02:56:25;;;;;;;8.85;3.72;;;;;;;2.83;81.25;101184.89;1762034;81;21084;-60
2022/01/05 02:58:54;;;;;;;7.47;4.47;;;;;;;2.83;81.26;101181.44;1761886;81;21238;-60
2022/01/05 03:01:23;;;;;;;8.93;4.60;;;;;;;2.84;81.29;101171.44;1762500;81;21171;-60
2022/01/05 03:03:51;;;;;;;10.08;5.00;;;;;;;2.89;81.18;101172.31;1768127;80;21558;-61
2022/01/05 03:06:21;;;;;;;9.75;4.45;;;;;;;2.87;81.17;101177.95;1768238;81;21566;-61
2022/01/05 03:08:51;;;;;;;11.85;5.33;;;;;;;2.86;81.15;101172.34;1768176;81;21141;-61
2022/01/05 03:11:20;;;;;;;10.05;4.80;;;;;;;2.80;81.27;101165.37;1768055;81;21159;-60
2022/01/05 03:13:50;;;;;;;11.70;4.60;;;;;;;2.74;81.51;101161.92;1768431;80;21221;-59
2022/01/05 03:16:19;;;;;;;8.83;5.35;;;;;;;2.76;81.60;101159.75;1768111;81;21175;-58
2022/01/05 03:18:47;;;;;;;9.30;4.60;;;;;;;2.81;81.59;101161.06;1768017;81;21069;-60
2022/01/05 03:21:16;;;;;;;8.43;4.65;;;;;;;2.85;81.59;101154.55;1768514;81;21077;-59
2022/01/05 03:23:46;;;;;;;7.55;4.53;;;;;;;2.91;81.50;101160.17;1768296;80;21568;-59
2022/01/05 03:26:15;;;;;;;9.75;4.25;;;;;;;2.96;81.34;101158.44;1768304;81;21076;-59
2022/01/05 03:28:44;;;;;;;9.70;4.70;;;;;;;2.99;81.24;101157.14;1768217;81;21073;-59
2022/01/05 03:31:12;;;;;;;7.00;4.08;;;;;;;3.02;81.26;101158.42;1768091;81;21618;-60
2022/01/05 03:33:41;;;;;;;8.08;4.30;;;;;;;3.05;81.35;101157.57;1768293;81;21077;-60
2022/01/05 03:36:10;;;;;;;10.05;4.40;;;;;;;3.08;81.40;101161.45;1767700;81;21073;-61
2022/01/05 03:38:38;;;;;;;9.85;4.80;;;;;;;3.13;81.34;101166.66;1778360;80;21133;-61
2022/01/05 03:41:07;;;;;;;8.38;4.33;;;;;;;3.15;81.22;101164.92;1790801;79;21073;-59
2022/01/05 03:43:35;;;;;;;11.12;5.65;;;;;;;3.15;81.08;101163.62;1790924;79;21524;-58
2022/01/05 03:46:04;;;;;;;11.25;5.33;;;;;;;3.13;80.92;101158.86;1795881;79;21078;-60
2022/01/05 03:48:33;;;;;;;9.28;4.90;;;;;;;3.14;80.83;101163.20;1800889;80;21057;-60
2022/01/05 03:51:02;;;;;;;13.15;7.08;;;;;;;3.12;80.72;101164.91;1800888;80;21135;-62
2022/01/05 03:53:30;;;;;;;16.55;9.40;;;;;;;3.07;80.61;101160.59;1800722;80;21500;-60
2022/01/05 03:56:01;;;;;;;12.15;7.53;;;;;;;3.03;80.70;101165.37;1800941;80;21230;-60
2022/01/05 03:58:30;;;;;;;18.95;8.18;;;;;;;2.96;80.95;101166.25;1800786;80;21121;-61
2022/01/05 04:00:59;;;;;;;15.78;7.85;;;;;;;2.94;81.10;101161.48;1800840;80;21065;-60
2022/01/05 04:03:27;;;;;;;13.83;7.30;;;;;;;2.92;81.19;101156.72;1800793;80;21049;-60
2022/01/05 04:05:56;;;;;;;6.65;2.27;;;;;;;2.97;81.33;101158.89;1800596;80;21132;-60
2022/01/05 04:08:25;;;;;;;3.62;1.45;;;;;;;3.35;82.36;101152.73;1800714;80;21495;-60
2022/01/05 04:10:54;;;;;;;2.77;1.37;;;;;;;3.82;82.94;101158.22;1800843;80;21144;-60
2022/01/05 04:13:24;;;;;;;1.98;1.10;;;;;;;4.22;82.90;101161.92;1800674;80;21061;-60
2022/01/05 04:15:52;;;;;;;5.05;1.10;;;;;;;4.61;82.80;101157.30;1800752;78;21152;-60
2022/01/05 04:18:21;;;;;;;3.80;1.10;;;;;;;4.93;82.69;101153.55;1800650;80;21073;-61
2022/01/05 04:20:50;;;;;;;2.75;1.10;;;;;;;5.17;82.48;101155.50;1800770;80;21183;-61
2022/01/05 04:23:18;;;;;;;4.47;1.35;;;;;;;5.34;82.31;101160.09;1800829;78;21064;-60
2022/01/05 04:25:47;;;;;;;2.62;1.12;;;;;;;5.51;82.10;101151.22;1800723;80;21456;-60
2022/01/05 04:28:16;;;;;;;1.72;1.37;;;;;;;5.65;81.95;101146.70;1800818;80;21090;-61
2022/01/05 04:30:46;;;;;;;2.83;0.70;;;;;;;5.76;81.77;101149.19;1800686;80;21089;-60
2022/01/05 04:33:14;;;;;;;2.80;1.10;;;;;;;5.81;81.63;101140.85;1800720;80;21065;-60
2022/01/05 04:35:44;;;;;;;3.17;0.82;;;;;;;5.90;81.57;101146.38;1800724;80;21090;-60
2022/01/05 04:38:13;;;;;;;1.15;1.00;;;;;;;5.99;81.44;101151.52;1800861;80;21065;-60
2022/01/05 04:40:41;;;;;;;2.10;1.02;;;;;;;6.08;81.29;101143.55;1830090;78;21089;-60
2022/01/05 04:43:10;;;;;;;3.15;1.25;;;;;;;6.14;81.17;101146.52;1800744;80;21207;-62
2022/01/05 04:45:40;;;;;;;4.15;2.00;;;;;;;6.16;81.09;101140.81;1800713;80;21496;-61
2022/01/05 04:48:09;;;;;;;2.77;1.52;;;;;;;6.19;81.03;101141.64;1800837;78;21054;-61
2022/01/05 04:50:39;;;;;;;3.35;1.47;;;;;;;6.22;80.96;101139.44;1800749;80;21093;-58
2022/01/05 04:53:10;;;;;;;2.58;1.40;;;;;;;6.24;80.91;101143.34;1800748;80;21127;-58
2022/01/05 04:55:39;;;;;;;2.60;1.42;;;;;;;6.23;80.85;101133.76;1800679;80;21081;-58
2022/01/05 04:58:08;;;;;;;5.08;1.65;;;;;;;6.25;80.79;101138.52;1800639;79;21072;-59
2022/01/05 05:00:37;;;;;;;1.70;1.35;;;;;;;6.26;80.76;101135.89;1800703;80;21128;-60
2022/01/05 05:03:06;;;;;;;3.50;1.30;;;;;;;6.30;80.72;101136.70;1800733;80;21065;-60
2022/01/05 05:05:35;;;;;;;2.42;1.35;;;;;;;6.36;80.63;101126.14;1800729;80;21488;-60
2022/01/05 05:08:04;;;;;;;1.92;1.00;;;;;;;6.40;80.43;101114.77;1800778;78;21148;-60
2022/01/05 05:10:33;;;;;;;5.67;1.60;;;;;;;6.51;80.13;101104.11;1800722;80;21065;-60
2022/01/05 05:13:10;;;;;;;1.45;1.05;;;;;;;6.62;80.03;101109.16;1800733;80;21123;-60
2022/01/05 05:15:40;;;;;;;1.35;1.05;;;;;;;6.70;79.75;101114.70;1800698;80;21159;-58
2022/01/05 05:18:09;;;;;;;3.42;1.12;;;;;;;6.76;79.51;101111.11;1800733;78;21053;-58
2022/01/05 05:20:37;;;;;;;1.17;1.07;;;;;;;6.86;79.07;101117.92;1800743;80;21065;-58
2022/01/05 05:23:06;;;;;;;1.75;1.05;;;;;;;6.93;79.03;101115.63;1800611;80;21155;-59
2022/01/05 05:25:35;;;;;;;2.17;1.20;;;;;;;6.98;78.81;101097.20;1800828;80;21155;-61
2022/01/05 05:28:04;;;;;;;1.95;1.07;;;;;;;7.01;78.83;101100.19;1800809;80;21053;-61
2022/01/05 05:30:33;;;;;;;1.25;0.95;;;;;;;7.04;78.67;101094.91;1802761;78;21116;-58
2022/01/05 05:33:02;;;;;;;3.35;1.37;;;;;;;7.08;78.61;101101.80;1821050;77;21479;-58
2022/01/05 05:35:31;;;;;;;3.47;1.12;;;;;;;7.09;78.56;101100.92;1842333;78;21151;-59
2022/01/05 05:38:00;;;;;;;1.20;0.95;;;;;;;7.09;78.50;101102.23;1789225;79;21064;-58
2022/01/05 05:40:29;;;;;;;6.12;1.32;;;;;;;7.11;78.47;101097.83;1781526;80;21162;-58
2022/01/05 05:42:57;;;;;;;1.80;1.15;;;;;;;7.16;78.07;101102.54;1780193;80;21589;-59
2022/01/05 05:45:38;;;;;;;;;;;;;;;;;;;;;
2022/01/05 05:48:17;;;;;;;2.95;1.50;;;;;;;7.24;77.87;101095.84;1730504;83;21644;-59
2022/01/05 05:50:46;;;;;;;3.12;1.10;;;;;;;7.26;77.81;101092.28;1729534;81;21462;-58
2022/01/05 05:53:15;;;;;;;3.77;1.17;;;;;;;7.31;77.57;101106.16;1730787;83;21052;-59
2022/01/05 05:55:43;;;;;;;5.67;1.45;;;;;;;7.34;77.42;101107.42;1730646;83;21180;-58
2022/01/05 05:58:12;;;;;;;1.70;1.37;;;;;;;7.39;77.47;101111.70;1730602;83;21101;-57
2022/01/05 06:00:40;;;;;;;1.60;1.20;;;;;;;7.42;77.30;101118.20;1730777;81;21905;-57
2022/01/05 06:03:09;;;;;;;3.72;1.62;;;;;;;7.45;77.31;101118.12;1731859;81;21053;-57
2022/01/05 06:05:38;;;;;;;5.55;1.50;;;;;;;7.49;77.19;101122.42;1729291;83;21537;-57
2022/01/05 06:08:07;;;;;;;3.42;0.90;;;;;;;7.53;76.72;101121.47;1730648;83;21108;-57
2022/01/05 06:10:35;;;;;;;5.03;1.50;;;;;;;7.58;76.54;101123.98;1730507;83;21464;-58
2022/01/05 06:13:04;;;;;;;2.00;1.20;;;;;;;7.61;76.55;101133.95;1729574;82;21098;-58
2022/01/05 06:15:32;;;;;;;1.90;1.70;;;;;;;7.66;76.38;101126.86;1730253;81;21117;-58
2022/01/05 06:18:01;;;;;;;2.22;1.10;;;;;;;7.72;76.29;101122.79;1729651;83;21152;-58
2022/01/05 06:20:30;;;;;;;1.70;1.22;;;;;;;7.78;76.02;101117.01;1729521;83;21106;-58
2022/01/05 06:22:58;;;;;;;1.77;1.20;;;;;;;7.82;75.89;101113.42;1730032;81;21153;-58
2022/01/05 06:25:27;;;;;;;1.80;1.00;;;;;;;7.84;75.88;101119.06;1729600;83;21050;-59
2022/01/05 06:27:56;;;;;;;4.10;1.02;;;;;;;7.89;75.14;101110.66;1729528;82;21260;-58
2022/01/05 06:30:25;;;;;;;3.37;1.05;;;;;;;7.95;75.17;101109.66;1729700;81;21540;-58
2022/01/05 06:32:54;;;;;;;2.67;1.10;;;;;;;7.99;74.93;101113.93;1729543;83;21539;-58
2022/01/05 06:35:24;;;;;;;1.80;1.07;;;;;;;8.06;74.30;101118.14;1729670;82;21164;-58
2022/01/05 06:37:53;;;;;;;2.62;1.30;;;;;;;8.14;74.11;101111.86;1729662;82;21157;-58
2022/01/05 06:40:24;;;;;;;4.17;1.02;;;;;;;8.19;74.25;101113.48;1730258;81;21168;-57
2022/01/05 06:42:53;;;;;;;2.40;1.27;;;;;;;8.23;74.04;101116.44;1730092;82;21614;-57
2022/01/05 06:45:22;;;;;;;1.52;0.90;;;;;;;8.28;74.04;101120.25;1729661;83;21223;-58
2022/01/05 06:47:51;;;;;;;1.77;1.00;;;;;;;8.31;73.66;101125.44;1742652;80;21659;-58
2022/01/05 06:50:20;;;;;;;2.15;1.10;;;;;;;8.34;73.80;101116.62;1750212;82;21551;-57
2022/01/05 06:52:49;;;;;;;2.75;0.80;;;;;;;8.37;73.56;101125.73;1749894;82;21091;-57
2022/01/05 06:55:18;;;;;;;1.87;1.27;;;;;;;8.41;73.29;101117.77;1750014;82;21521;-58
2022/01/05 06:57:47;;;;;;;1.40;1.10;;;;;;;8.44;73.29;101113.77;1749985;82;21545;-59
2022/01/05 07:00:16;;;;;;;3.30;0.90;;;;;;;8.48;72.61;101122.44;1749994;82;21548;-58
2022/01/05 07:02:45;;;;;;;2.45;1.22;;;;;;;8.56;72.48;101128.80;1756443;80;21055;-58
2022/01/05 07:05:14;;;;;;;3.50;1.20;;;;;;;8.61;72.26;101126.94;1730115;83;21521;-58
2022/01/05 07:07:43;;;;;;;4.50;1.15;;;;;;;8.67;72.25;101113.22;1747706;80;21090;-58
2022/01/05 07:10:12;;;;;;;4.80;1.10;;;;;;;8.74;71.10;101092.91;1775556;81;21596;-58
2022/01/05 07:12:41;;;;;;;2.75;1.07;;;;;;;8.87;71.10;101100.90;1775579;81;21564;-58
2022/01/05 07:15:11;;;;;;;1.75;0.80;;;;;;;8.97;70.73;101104.59;1775570;81;21482;-58
2022/01/05 07:17:40;;;;;;;2.67;0.90;;;;;;;9.07;70.29;101112.20;1775591;81;21062;-57
2022/01/05 07:20:10;;;;;;;4.87;1.10;;;;;;;9.14;69.68;101110.25;1747549;81;21155;-56
2022/01/05 07:22:38;;;;;;;4.65;1.02;;;;;;;9.16;69.81;101093.98;1719368;83;21110;-57
2022/01/05 07:25:08;;;;;;;2.52;1.30;;;;;;;9.18;69.73;101093.48;1718957;83;21154;-57
2022/01/05 07:27:37;;;;;;;2.27;1.00;;;;;;;9.19;69.43;101110.14;1718974;83;21072;-58
2022/01/05 07:30:07;;;;;;;1.60;1.00;;;;;;;9.18;69.57;101084.30;1719314;83;21095;-57
2022/01/05 07:32:37;;;;;;;1.45;0.80;;;;;;;9.17;69.41;101077.33;1719409;83;21240;-58
2022/01/05 07:35:06;;;;;;;1.35;1.00;;;;;;;9.18;69.16;101072.93;1719449;83;21518;-57
2022/01/05 07:37:34;;;;;;;3.75;1.05;;;;;;;9.17;68.88;101049.75;1719343;83;21082;-57
2022/01/05 07:40:05;;;;;;;7.22;1.02;;;;;;;9.22;68.91;101064.05;1719297;83;21099;-57
2022/01/05 07:42:34;;;;;;;1.87;1.15;;;;;;;9.26;68.50;101072.28;1721699;82;21092;-56
2022/01/05 07:45:05;;;;;;;2.80;1.12;;;;;;;9.30;68.04;101088.83;1735848;81;21264;-57
2022/01/05 07:47:34;;;;;;;2.22;0.95;;;;;;;9.33;68.08;101086.09;1751967;81;21094;-56
2022/01/05 07:50:04;;;;;;;3.98;0.85;;;;;;;9.35;68.00;101089.53;1779336;81;21517;-58
2022/01/05 07:52:32;;;;;;;4.85;1.30;;;;;;;9.39;67.91;101102.55;1779402;81;21141;-57
2022/01/05 07:55:02;;;;;;;4.62;1.12;;;;;;;9.42;66.67;101102.45;1779344;81;21583;-57
2022/01/05 07:57:30;;;;;;;4.97;1.20;;;;;;;9.49;66.82;101083.89;1779279;81;21551;-57
2022/01/05 07:59:59;;;;;;;3.37;1.00;;;;;;;9.58;67.08;101070.02;1779307;81;21110;-56
2022/01/05 08:02:28;;;;;;;1.90;1.15;;;;;;;9.62;66.41;101087.42;1779253;81;21574;-56
2022/01/05 08:04:57;;;;;;;1.95;0.90;;;;;;;9.63;66.30;101083.89;1806831;79;21564;-57
2022/01/05 08:07:25;;;;;;;4.80;1.02;;;;;;;9.66;66.32;101077.24;1790704;79;21047;-57
2022/01/05 08:09:54;;;;;;;5.47;1.12;;;;;;;9.70;66.43;101078.44;1747741;82;21134;-57
2022/01/05 08:12:22;;;;;;;5.58;1.00;;;;;;;9.73;65.91;101077.05;1754442;81;21140;-56
2022/01/05 08:14:51;;;;;;;2.58;0.93;;;;;;;9.74;65.84;101080.95;1829699;75;21050;-56
2022/01/05 08:17:20;;;;;;;4.95;0.95;;;;;;;9.78;66.01;101046.22;1858335;76;21456;-56
2022/01/05 08:19:48;;;;;;;2.52;1.10;;;;;;;9.84;66.14;101040.76;1816194;79;21051;-56
2022/01/05 08:22:17;;;;;;;2.70;1.25;;;;;;;9.86;65.73;101053.41;1880489;76;21137;-56
2022/01/05 08:24:46;;;;;;;3.80;1.10;;;;;;;9.86;65.30;101071.81;1880684;75;21138;-57
2022/01/05 08:27:15;;;;;;;5.40;1.27;;;;;;;9.87;65.86;101072.23;1880622;76;21552;-57
2022/01/05 08:29:44;;;;;;;2.95;0.93;;;;;;;9.89;65.70;101074.83;1880683;76;21469;-57
2022/01/05 08:32:14;;;;;;;2.00;0.90;;;;;;;9.88;65.10;101035.80;1894326;75;21054;-57
2022/01/05 08:34:43;;;;;;;1.05;0.72;;;;;;;9.90;65.55;101060.28;1910112;75;21105;-55
2022/01/05 08:37:11;;;;;;;3.72;0.90;;;;;;;9.90;64.96;101047.13;1908681;74;21456;-57
2022/01/05 08:39:40;;;;;;;4.05;1.10;;;;;;;9.95;65.26;101043.91;1923643;74;21112;-56
2022/01/05 08:42:09;;;;;;;4.72;1.07;;;;;;;9.99;64.82;101042.89;1917849;74;21539;-57
2022/01/05 08:44:38;;;;;;;5.55;0.93;;;;;;;10.02;63.92;101063.85;1913781;75;21035;-56
2022/01/05 08:47:07;;;;;;;1.62;0.68;;;;;;;10.07;64.10;101057.58;1913647;75;21512;-57
2022/01/05 08:49:36;;;;;;;4.10;0.90;;;;;;;10.13;64.32;101075.83;1913870;75;21061;-57
2022/01/05 08:52:05;;;;;;;2.55;1.10;;;;;;;10.18;64.15;101060.72;1913738;75;21120;-57
2022/01/05 08:54:34;;;;;;;2.58;1.05;;;;;;;10.21;62.94;101064.58;1913748;75;21110;-57
2022/01/05 08:57:04;;;;;;;3.90;0.80;;;;;;;10.22;62.70;101062.38;1913761;75;21451;-57
2022/01/05 08:59:33;;;;;;;4.55;0.98;;;;;;;10.21;62.09;101076.42;1913720;75;21015;-57
2022/01/05 09:02:02;;;;;;;3.00;0.80;;;;;;;10.22;62.28;101038.69;1913686;75;21137;-57
2022/01/05 09:04:30;;;;;;;1.30;0.70;;;;;;;10.24;62.57;101059.23;1913735;75;21035;-57
2022/01/05 09:07:00;;;;;;;3.75;1.10;;;;;;;10.29;62.76;101036.27;1913888;75;21047;-57
2022/01/05 09:09:28;;;;;;;3.92;0.78;;;;;;;10.32;62.42;101029.59;1913860;75;21500;-57
2022/01/05 09:11:57;;;;;;;2.75;0.90;;;;;;;10.36;62.55;101032.98;1913691;75;21035;-58
2022/01/05 09:14:26;;;;;;;4.20;1.12;;;;;;;10.38;61.98;101020.19;1914912;74;21122;-57
2022/01/05 09:16:55;;;;;;;4.12;0.98;;;;;;;10.39;61.90;101004.78;1942529;74;21062;-57
2022/01/05 09:19:23;;;;;;;2.42;1.00;;;;;;;10.42;62.42;100997.23;1942421;74;21052;-57
2022/01/05 09:21:54;;;;;;;4.00;0.93;;;;;;;10.43;62.49;101023.50;1877156;72;21114;-57
2022/01/05 09:24:22;;;;;;;4.55;0.93;;;;;;;10.45;62.50;100993.65;1876483;76;21084;-57
2022/01/05 09:26:51;;;;;;;2.42;0.98;;;;;;;10.49;62.51;100972.41;1876317;76;21102;-57
2022/01/05 09:29:20;;;;;;;4.80;1.40;;;;;;;10.52;61.76;100976.73;1876356;76;21059;-57
2022/01/05 09:31:49;;;;;;;2.70;0.98;;;;;;;10.57;62.09;100979.60;1876372;76;21059;-57
2022/01/05 09:34:18;;;;;;;2.40;1.02;;;;;;;10.63;61.71;100962.72;1876488;76;21082;-57
2022/01/05 09:36:51;;;;;;;4.42;1.40;;;;;;;10.68;61.08;100946.31;1876358;76;21035;-57
2022/01/05 09:42:07;;;;;;;2.35;0.95;;;;;;;11.04;60.27;100945.00;1876345;76;21043;-57
2022/01/05 09:44:42;;;;;;;1.67;1.00;;;;;;;11.18;60.03;100947.52;1876374;76;21035;-57
2022/01/05 09:47:13;;;;;;;1.85;1.22;;;;;;;11.25;59.72;100886.64;1876327;76;21063;-57
2022/01/05 09:49:48;;;;;;;5.33;1.22;;;;;;;11.36;59.38;100921.34;1874309;76;21043;-57
2022/01/05 09:52:17;;;;;;;1.60;0.90;;;;;;;11.48;58.95;100903.73;1867049;76;21168;-57
2022/01/05 09:54:46;;;;;;;5.53;1.25;;;;;;;11.57;58.92;100909.95;1876371;76;21153;-57
2022/01/05 09:57:15;;;;;;;2.37;1.32;;;;;;;11.47;58.95;100907.73;1876344;76;21458;-57
2022/01/05 09:59:44;;;;;;;4.17;1.00;;;;;;;11.36;59.37;100902.45;1876333;76;21063;-57
2022/01/05 10:02:16;;;;;;;2.77;1.17;;;;;;;11.20;60.17;100939.55;1876230;76;21039;-57
2022/01/05 10:04:46;;;;;;;3.67;1.07;;;;;;;11.03;60.09;100948.54;1876359;76;21039;-57
2022/01/05 10:07:16;;;;;;;4.22;0.93;;;;;;;10.86;60.50;100956.61;1876360;76;21047;-57
2022/01/05 10:09:46;;;;;;;2.00;1.20;;;;;;;10.77;61.15;100966.16;1876325;75;21062;-57
2022/01/05 10:12:15;;;;;;;2.72;1.30;;;;;;;10.70;61.57;100955.02;1876440;76;21051;-57
2022/01/05 10:14:47;;;;;;;3.87;1.98;;;;;;;10.57;61.62;100961.17;1876415;76;21165;-57
2022/01/05 10:17:18;;;;;;;2.85;1.40;;;;;;;10.52;62.18;100949.94;1876436;76;21035;-57
2022/01/05 10:19:48;;;;;;;3.30;1.47;;;;;;;10.50;61.94;100933.34;1876325;76;21489;-57
2022/01/05 10:22:33;;;;;;;3.87;1.22;;;;;;;10.51;62.40;100948.23;1878577;75;21091;-57
2022/01/05 10:25:07;;;;;;;3.47;1.05;;;;;;;10.56;62.63;100944.11;1879444;76;21085;-58
2022/01/05 10:27:37;;;;;;;5.33;1.20;;;;;;;10.68;62.36;100900.66;1870439;76;21039;-58
2022/01/05 10:30:12;;;;;;;2.20;0.95;;;;;;;10.94;61.45;100919.00;1879546;76;21493;-57
2022/01/05 10:32:43;;;;;;;3.80;1.32;;;;;;;11.17;60.45;100927.33;1879615;76;21051;-57
2022/01/05 10:35:20;;;;;;;2.80;1.27;;;;;;;11.49;59.49;100916.00;1877912;76;21116;-57
2022/01/05 10:38:00;;;;;;;3.33;1.00;;;;;;;11.87;58.55;100925.44;1879504;76;21138;-57
2022/01/05 10:40:29;;;;;;;6.75;1.60;;;;;;;12.91;55.83;100917.88;1879485;76;21070;-55
2022/01/05 10:42:58;;;;;;;4.22;1.10;;;;;;;13.46;54.43;100934.30;1879513;76;21523;-57
2022/01/05 10:45:45;;;;;;;5.92;1.05;;;;;;;13.44;53.97;100909.70;1879510;76;21461;-54
2022/01/05 10:48:15;;;;;;;3.30;1.35;;;;;;;13.04;54.86;100893.05;1879558;76;21086;-54
2022/01/05 10:50:46;;;;;;;3.02;1.20;;;;;;;12.41;56.46;100906.48;1879566;76;21104;-59
2022/01/05 10:53:20;;;;;;;3.50;1.37;;;;;;;12.00;57.12;100874.36;1879600;76;21035;-57
2022/01/05 10:55:49;;;;;;;5.40;1.42;;;;;;;11.71;58.29;100903.24;1879521;76;21583;-58
2022/01/05 10:58:19;;;;;;;3.15;1.40;;;;;;;11.45;59.21;100890.66;1879374;76;21544;-58
2022/01/05 11:00:51;;;;;;;6.90;1.42;;;;;;;11.24;60.11;100891.06;1879468;76;21141;-58
2022/01/05 11:03:28;;;;;;;6.58;1.40;;;;;;;11.10;60.53;100919.72;1879525;76;21598;-58
2022/01/05 11:06:06;;;;;;;5.67;1.52;;;;;;;10.96;61.27;100886.86;1878803;76;21509;-58
2022/01/05 11:08:54;;;;;;;3.55;1.30;;;;;;;10.96;61.50;100855.72;1879515;76;21047;-58
2022/01/05 11:11:41;;;;;;;4.80;1.42;;;;;;;10.82;61.81;100876.84;1879454;76;21042;-58
2022/01/05 11:14:15;;;;;;;2.50;1.12;;;;;;;10.71;62.35;100875.07;1879493;76;21094;-56
2022/01/05 11:16:46;;;;;;;3.02;1.30;;;;;;;10.64;62.96;100877.52;1870875;76;21105;-57
2022/01/05 11:19:20;;;;;;;3.55;1.32;;;;;;;10.58;63.18;100865.91;1879376;76;21051;-58
2022/01/05 11:22:07;;;;;;;8.68;1.45;;;;;;;10.57;63.10;100837.42;1885812;75;21374;-58
2022/01/05 11:24:38;;;;;;;3.98;1.40;;;;;;;10.54;63.31;100857.73;1898379;75;21113;-57
2022/01/05 11:27:10;;;;;;;6.33;1.65;;;;;;;10.47;63.51;100893.09;1898523;75;21184;-58
2022/01/05 11:29:39;;;;;;;5.35;1.50;;;;;;;10.40;63.65;100865.69;1898158;75;21558;-57
2022/01/05 11:32:11;;;;;;;4.33;1.27;;;;;;;10.34;63.75;100857.99;1898438;75;21050;-58
2022/01/05 11:34:40;;;;;;;4.05;1.35;;;;;;;10.34;63.59;100855.83;1898364;75;21093;-58
2022/01/05 11:37:09;;;;;;;3.37;1.57;;;;;;;10.39;63.44;100841.58;1898326;75;21472;-58
2022/01/05 11:39:47;;;;;;;8.73;1.65;;;;;;;10.41;63.56;100842.38;1898321;75;21535;-58
2022/01/05 11:42:18;;;;;;;3.75;1.30;;;;;;;10.41;63.66;100844.16;1898320;75;21477;-58